Time;durP1;ratioP1;P1;durP2;ratioP2;P2;SDS_P1;SDS_P2;PMS_P1;PMS_P2;Temp;Humidity;BMP_temperature;BMP_pressure;BME280_temperature;BME280_humidity;BME280_pressure;Samples;Min_cycle;Max_cycle;Signal;HPM_P1;HPM_P2
2022/09/09 00:01:35;;;;;;;11.27;9.32;;;;;;;20.72;58.65;94880.44;4205007;28;20056;-63
2022/09/09 00:03:49;;;;;;;11.15;9.05;;;;;;;20.72;59.04;94877.78;4209160;28;20044;-64
2022/09/09 00:05:59;;;;;;;10.90;8.63;;;;;;;20.76;58.82;94872.84;4208246;28;20448;-64
2022/09/09 00:08:03;;;;;;;12.95;8.40;;;;;;;20.72;58.92;94872.44;4203234;28;20052;-62
2022/09/09 00:10:17;;;;;;;15.10;9.15;;;;;;;20.71;58.85;94870.81;4199381;28;20044;-64
2022/09/09 00:12:25;;;;;;;;;;;;;;;20.68;59.02;94863.25;4199009;28;20515;-64
2022/09/09 00:14:32;;;;;;;12.40;8.93;;;;;;;20.65;59.19;94874.34;4219915;28;19919;-64
2022/09/09 00:16:37;;;;;;;10.75;9.13;;;;;;;20.66;59.31;94868.00;4209849;28;20782;-63
2022/09/09 00:18:54;;;;;;;11.77;9.45;;;;;;;20.65;59.29;94866.38;4212399;28;20204;-66
2022/09/09 00:21:07;;;;;;;10.48;8.40;;;;;;;20.65;59.45;94867.19;4213832;28;20532;-64
2022/09/09 00:23:19;;;;;;;12.35;9.50;;;;;;;20.62;59.47;94854.28;4206056;28;20052;-63
2022/09/09 00:25:29;;;;;;;10.70;9.60;;;;;;;20.61;59.47;94854.53;4209495;28;20545;-64
2022/09/09 00:27:47;;;;;;;12.20;8.90;;;;;;;20.60;59.41;94848.38;4205018;28;20139;-64
2022/09/09 00:30:11;;;;;;;10.80;9.38;;;;;;;20.58;59.74;94844.31;4211945;28;20079;-59
2022/09/09 00:32:22;;;;;;;12.27;9.93;;;;;;;20.55;59.76;94844.72;4212068;28;20136;-58
2022/09/09 00:34:26;;;;;;;10.50;8.90;;;;;;;20.51;59.98;94838.19;4214116;28;20143;-58
2022/09/09 00:36:28;;;;;;;10.82;8.85;;;;;;;20.47;60.30;94832.47;4212450;28;20130;-59
2022/09/09 00:38:52;;;;;;;14.65;10.00;;;;;;;20.45;60.28;94830.03;4197163;28;20472;-59
2022/09/09 00:41:42;;;;;;;12.48;9.35;;;;;;;20.42;60.11;94825.16;4197116;28;20165;-58
2022/09/09 00:43:49;;;;;;;13.05;8.95;;;;;;;20.41;60.67;94830.69;4166847;28;20700;-59
2022/09/09 00:46:18;;;;;;;10.80;9.63;;;;;;;20.35;60.58;94827.06;4181626;28;20060;-58
2022/09/09 00:48:22;;;;;;;16.52;10.07;;;;;;;20.32;60.73;94832.00;4213571;28;20515;-59
2022/09/09 00:50:33;;;;;;;14.25;9.98;;;;;;;20.28;61.02;94834.25;4210871;28;20129;-58
2022/09/09 00:52:54;;;;;;;12.70;10.00;;;;;;;20.26;61.07;94831.00;4200707;28;20052;-59
2022/09/09 00:55:20;;;;;;;11.35;9.98;;;;;;;20.25;61.00;94832.84;4213175;28;20125;-59
2022/09/09 00:57:32;;;;;;;11.50;9.90;;;;;;;20.27;61.07;94826.53;4196488;28;20132;-57
2022/09/09 00:59:58;;;;;;;13.13;10.02;;;;;;;20.24;61.16;94831.25;4215274;28;20086;-57
2022/09/09 01:02:01;;;;;;;12.45;9.73;;;;;;;20.29;61.11;94835.91;4198256;28;20462;-59
2022/09/09 01:04:08;;;;;;;11.73;9.48;;;;;;;20.30;61.05;94832.19;4196906;28;20048;-59
2022/09/09 01:06:25;;;;;;;13.02;9.00;;;;;;;20.32;60.79;94835.47;4197021;28;20044;-58
2022/09/09 01:08:33;;;;;;;12.60;9.45;;;;;;;20.30;61.04;94842.03;4210209;28;20461;-60
2022/09/09 01:10:53;;;;;;;10.85;9.43;;;;;;;20.31;61.22;94833.03;4206523;28;20057;-59
2022/09/09 01:12:57;;;;;;;11.05;8.88;;;;;;;20.26;61.41;94836.31;4196905;28;20053;-59
2022/09/09 01:15:10;;;;;;;12.15;9.13;;;;;;;20.23;61.49;94831.44;4211083;28;21416;-59
2022/09/09 01:17:22;;;;;;;10.38;8.80;;;;;;;20.21;61.66;94838.81;4204895;28;20084;-59
2022/09/09 01:19:33;;;;;;;10.60;8.57;;;;;;;20.23;61.66;94831.44;4207853;28;20052;-59
2022/09/09 01:21:47;;;;;;;10.48;9.48;;;;;;;20.15;61.66;94832.50;4199801;28;20075;-58
2022/09/09 01:24:31;;;;;;;15.82;9.48;;;;;;;20.12;62.06;94830.28;4212357;28;20147;-57
2022/09/09 01:26:43;;;;;;;10.25;9.23;;;;;;;20.13;62.00;94821.28;4160600;28;20965;-59
2022/09/09 01:28:49;;;;;;;12.55;9.55;;;;;;;20.15;61.91;94829.03;4161173;28;20107;-59
2022/09/09 01:30:51;;;;;;;10.23;9.13;;;;;;;20.14;61.84;94827.44;4177081;28;20079;-60
2022/09/09 01:32:58;;;;;;;10.50;8.82;;;;;;;20.07;62.21;94839.94;4160897;28;20108;-59
2022/09/09 01:35:01;;;;;;;15.35;9.68;;;;;;;19.95;62.38;94840.63;4177021;28;20053;-59
2022/09/09 01:37:08;;;;;;;12.40;9.67;;;;;;;19.77;62.74;94846.66;4159701;28;20060;-59
2022/09/09 01:39:10;;;;;;;14.68;9.60;;;;;;;19.52;63.73;94845.72;4176764;28;20128;-59
2022/09/09 01:41:12;;;;;;;11.68;10.45;;;;;;;19.37;64.16;94845.97;4160335;28;20119;-60
2022/09/09 01:43:14;;;;;;;12.40;9.57;;;;;;;19.27;64.46;94851.72;4160479;28;20140;-60
2022/09/09 01:45:15;;;;;;;16.15;9.73;;;;;;;19.12;64.69;94841.38;4176656;28;20053;-61
2022/09/09 01:47:17;;;;;;;12.52;9.27;;;;;;;19.07;64.91;94848.31;4160041;28;20144;-59
2022/09/09 01:49:19;;;;;;;11.88;9.90;;;;;;;18.95;65.33;94845.47;4159447;28;20144;-59
2022/09/09 01:51:21;;;;;;;10.52;8.65;;;;;;;18.97;65.57;94851.38;4176591;28;20611;-60
2022/09/09 01:53:23;;;;;;;14.80;9.73;;;;;;;19.05;65.48;94860.97;4176027;28;20132;-59
2022/09/09 01:55:30;;;;;;;14.57;9.38;;;;;;;19.14;65.13;94860.53;4176711;28;20133;-57
2022/09/09 01:58:17;;;;;;;14.43;9.13;;;;;;;19.23;64.36;94855.84;4193940;28;20071;-59
2022/09/09 02:00:19;;;;;;;11.35;8.48;;;;;;;19.27;63.89;94850.91;4202612;28;20492;-59
2022/09/09 02:02:32;;;;;;;10.10;9.00;;;;;;;19.32;63.81;94845.81;4208148;28;20076;-60
2022/09/09 02:04:38;;;;;;;11.32;8.52;;;;;;;19.37;63.44;94848.63;4212288;28;20051;-59
2022/09/09 02:06:40;;;;;;;10.25;9.00;;;;;;;19.39;63.03;94846.59;4211894;28;20555;-60
2022/09/09 02:08:49;;;;;;;13.93;8.63;;;;;;;19.43;62.99;94853.91;4211474;28;20533;-59
2022/09/09 02:10:54;;;;;;;11.90;9.18;;;;;;;19.46;62.84;94849.22;4211085;28;20135;-58
2022/09/09 02:13:05;;;;;;;10.30;9.18;;;;;;;19.40;63.06;94842.91;4212481;28;20130;-60
2022/09/09 02:15:20;;;;;;;13.43;9.43;;;;;;;19.39;63.14;94838.63;4198248;28;20072;-59
2022/09/09 02:17:35;;;;;;;11.90;9.20;;;;;;;19.42;63.13;94827.56;4211775;28;20154;-59
2022/09/09 02:19:48;;;;;;;11.57;8.65;;;;;;;19.46;63.10;94835.94;4211942;28;20048;-61
2022/09/09 02:21:51;;;;;;;9.90;8.70;;;;;;;19.50;62.96;94827.31;4204822;28;20499;-58
2022/09/09 02:23:53;;;;;;;10.32;8.95;;;;;;;19.54;62.67;94828.53;4207361;28;20055;-59
2022/09/09 02:25:57;;;;;;;12.40;9.45;;;;;;;19.56;62.67;94831.81;4210634;28;20530;-60
2022/09/09 02:28:00;;;;;;;16.10;9.02;;;;;;;19.55;62.23;94838.16;4210700;28;20069;-58
2022/09/09 02:30:03;;;;;;;15.10;9.75;;;;;;;19.24;63.03;94839.69;4210447;28;20075;-59
2022/09/09 02:32:09;;;;;;;15.50;10.23;;;;;;;19.15;63.55;94835.63;4204562;28;20041;-59
2022/09/09 02:34:12;;;;;;;10.88;9.77;;;;;;;19.12;63.69;94836.06;4206462;28;20500;-61
2022/09/09 02:36:16;;;;;;;11.85;9.63;;;;;;;19.16;63.73;94839.09;4210936;28;20465;-59
2022/09/09 02:38:18;;;;;;;12.85;9.98;;;;;;;18.95;63.92;94846.31;4209089;28;20432;-60
2022/09/09 02:40:21;;;;;;;14.57;10.80;;;;;;;18.50;64.75;94853.25;4203433;28;20048;-60
2022/09/09 02:42:23;;;;;;;15.35;11.35;;;;;;;18.15;65.77;94850.78;4209505;28;20135;-59
2022/09/09 02:44:25;;;;;;;17.90;11.38;;;;;;;18.12;66.73;94848.53;4211580;28;20125;-62
2022/09/09 02:46:42;;;;;;;14.93;10.95;;;;;;;18.31;66.08;94854.88;4209727;28;20043;-59
2022/09/09 02:49:01;;;;;;;14.27;10.30;;;;;;;18.52;65.46;94848.53;4211639;28;20083;-59
2022/09/09 02:51:06;;;;;;;12.20;10.05;;;;;;;18.65;64.78;94859.19;4198800;28;20078;-58
2022/09/09 02:53:16;;;;;;;12.25;10.23;;;;;;;18.80;64.24;94854.50;4192856;28;20048;-60
2022/09/09 02:55:36;;;;;;;12.18;9.88;;;;;;;18.89;63.83;94849.78;4211815;28;20059;-58
2022/09/09 02:57:38;;;;;;;12.10;9.95;;;;;;;18.92;63.42;94845.91;4198352;28;20081;-58
2022/09/09 02:59:41;;;;;;;10.23;9.20;;;;;;;18.95;63.53;94850.78;4209773;28;20143;-57
2022/09/09 03:01:43;;;;;;;11.27;9.98;;;;;;;19.00;63.18;94851.00;4210711;28;20071;-58
2022/09/09 03:03:46;;;;;;;10.32;9.20;;;;;;;19.05;62.96;94853.81;4208119;28;20071;-58
2022/09/09 03:05:48;;;;;;;15.00;10.93;;;;;;;19.08;63.15;94855.25;4211299;28;20056;-59
2022/09/09 03:07:50;;;;;;;14.32;10.60;;;;;;;19.04;63.38;94852.22;4210068;28;20048;-59
2022/09/09 03:09:54;;;;;;;13.68;10.10;;;;;;;18.95;63.36;94848.13;4210831;28;20592;-59
2022/09/09 03:11:56;;;;;;;11.13;10.02;;;;;;;18.73;63.84;94847.53;4211205;28;20060;-58
2022/09/09 03:13:58;;;;;;;12.23;10.45;;;;;;;18.51;64.72;94857.53;4211038;28;20139;-58
2022/09/09 03:16:00;;;;;;;13.75;10.82;;;;;;;18.51;64.94;94852.22;4210438;28;20048;-58
2022/09/09 03:18:01;;;;;;;11.57;10.30;;;;;;;18.42;64.81;94848.97;4210985;28;20600;-58
2022/09/09 03:20:04;;;;;;;14.65;10.25;;;;;;;18.25;65.04;94848.56;4211483;28;20105;-59
2022/09/09 03:22:05;;;;;;;12.25;10.70;;;;;;;18.00;65.58;94853.59;4209449;28;20130;-58
2022/09/09 03:24:07;;;;;;;12.50;10.48;;;;;;;17.98;65.95;94856.47;4211452;28;20075;-58
2022/09/09 03:26:09;;;;;;;14.80;10.40;;;;;;;18.11;65.78;94850.38;4210975;28;20665;-57
2022/09/09 03:28:11;;;;;;;12.30;10.00;;;;;;;18.28;65.34;94850.78;4210840;28;20079;-59
2022/09/09 03:30:13;;;;;;;11.73;10.02;;;;;;;18.44;65.10;94848.78;4210820;28;20080;-58
2022/09/09 03:32:17;;;;;;;14.38;10.70;;;;;;;18.57;64.72;94846.91;4210768;28;20075;-58
2022/09/09 03:34:18;;;;;;;13.40;10.38;;;;;;;18.69;64.55;94841.00;4211015;28;20048;-59
2022/09/09 03:36:20;;;;;;;11.05;9.93;;;;;;;18.79;63.80;94847.53;4211168;28;20072;-60
2022/09/09 03:38:25;;;;;;;12.93;10.63;;;;;;;18.86;62.99;94852.84;4206645;28;20049;-60
2022/09/09 03:40:27;;;;;;;13.48;10.73;;;;;;;18.91;62.56;94845.09;4194904;28;20131;-58
2022/09/09 03:42:28;;;;;;;12.80;10.25;;;;;;;18.97;62.25;94843.44;4209595;28;20058;-59
2022/09/09 03:44:30;;;;;;;13.82;9.43;;;;;;;19.03;62.29;94840.75;4210950;28;20048;-59
2022/09/09 03:46:32;;;;;;;12.85;10.15;;;;;;;19.07;62.40;94830.53;4210098;28;20567;-59
2022/09/09 03:48:34;;;;;;;14.05;9.65;;;;;;;19.10;62.20;94842.56;4211421;28;20117;-59
2022/09/09 03:50:35;;;;;;;12.38;10.18;;;;;;;19.13;62.07;94843.00;4210910;28;20093;-58
2022/09/09 03:52:38;;;;;;;13.00;10.07;;;;;;;19.15;62.03;94845.44;4210394;28;20117;-64
2022/09/09 03:54:42;;;;;;;12.85;10.85;;;;;;;19.17;62.17;94854.03;4207082;28;20130;-63
2022/09/09 03:56:44;;;;;;;;;;;;;;;19.18;61.92;94853.78;4208747;28;20048;-62
2022/09/09 03:58:45;;;;;;;15.93;11.13;;;;;;;19.17;61.96;94854.81;4211003;28;19971;-63
2022/09/09 04:00:54;;;;;;;15.80;12.20;;;;;;;19.15;61.99;94850.75;4211050;28;20130;-63
2022/09/09 04:02:57;;;;;;;15.57;11.30;;;;;;;19.08;62.29;94860.56;4209919;28;20134;-64
2022/09/09 04:04:59;;;;;;;13.73;11.33;;;;;;;19.06;62.33;94857.28;4217580;28;20044;-64
2022/09/09 04:07:01;;;;;;;15.95;10.90;;;;;;;19.06;62.37;94859.94;4209637;28;20667;-65
2022/09/09 04:09:03;;;;;;;15.85;11.23;;;;;;;19.04;62.34;94860.19;4210965;28;20054;-63
2022/09/09 04:11:06;;;;;;;13.98;10.30;;;;;;;19.09;62.50;94859.53;4209931;28;20131;-64
2022/09/09 04:13:08;;;;;;;14.77;10.85;;;;;;;19.11;62.65;94855.66;4208908;28;20078;-66
2022/09/09 04:15:10;;;;;;;19.98;10.85;;;;;;;19.11;62.57;94857.50;4204053;28;20494;-65
2022/09/09 04:17:12;;;;;;;14.57;10.95;;;;;;;19.11;62.28;94860.16;4207955;28;20125;-66
2022/09/09 04:19:14;;;;;;;16.50;10.70;;;;;;;19.15;62.19;94854.22;4210799;28;20044;-65
2022/09/09 04:21:16;;;;;;;13.45;11.23;;;;;;;19.19;62.25;94854.63;4211193;28;20080;-65
2022/09/09 04:23:21;;;;;;;14.00;10.43;;;;;;;19.23;62.38;94854.00;4207792;28;20044;-66
2022/09/09 04:25:22;;;;;;;17.17;11.32;;;;;;;19.28;62.38;94847.25;4198138;28;20098;-66
2022/09/09 04:27:24;;;;;;;17.10;11.13;;;;;;;19.29;62.35;94846.22;4210302;28;20056;-64
2022/09/09 04:29:26;;;;;;;14.18;10.82;;;;;;;19.30;62.17;94861.13;4210838;28;20051;-64
2022/09/09 04:31:27;;;;;;;14.95;10.45;;;;;;;19.32;62.31;94859.91;4209777;28;20127;-65
2022/09/09 04:33:31;;;;;;;15.55;11.85;;;;;;;19.36;62.26;94868.25;4213048;28;20466;-69
2022/09/09 04:35:33;;;;;;;12.82;10.05;;;;;;;19.39;61.87;94858.03;4213810;28;20046;-64
2022/09/09 04:37:35;;;;;;;15.68;10.63;;;;;;;19.44;61.82;94854.72;4211694;28;20060;-64
2022/09/09 04:39:37;;;;;;;13.32;10.57;;;;;;;19.46;61.58;94863.31;4214117;28;20512;-67
2022/09/09 04:41:38;;;;;;;13.77;11.32;;;;;;;19.49;61.37;94868.22;4213592;28;20097;-64
2022/09/09 04:43:40;;;;;;;15.85;11.15;;;;;;;19.52;61.19;94870.44;4213786;28;20891;-65
2022/09/09 04:45:43;;;;;;;17.52;11.10;;;;;;;19.54;61.14;94873.72;4211037;28;20131;-66
2022/09/09 04:47:45;;;;;;;16.45;10.98;;;;;;;19.57;61.27;94862.66;4197662;28;20040;-66
2022/09/09 04:49:47;;;;;;;17.05;11.30;;;;;;;19.60;61.57;94856.13;4213368;28;20050;-66
2022/09/09 04:51:49;;;;;;;15.20;10.48;;;;;;;19.63;61.42;94847.72;4213153;28;20059;-65
2022/09/09 04:53:51;;;;;;;15.65;10.70;;;;;;;19.70;61.14;94855.69;4212783;28;20079;-65
2022/09/09 04:56:07;;;;;;;18.25;10.52;;;;;;;19.71;61.07;94849.34;4213761;28;20048;-65
2022/09/09 04:58:08;;;;;;;15.20;11.10;;;;;;;19.73;61.09;94856.09;4213256;28;20520;-62
2022/09/09 05:00:10;;;;;;;15.65;11.00;;;;;;;19.78;60.93;94853.59;4213081;28;20051;-66
2022/09/09 05:02:12;;;;;;;18.50;12.02;;;;;;;19.88;60.78;94855.81;4206991;28;20233;-65
2022/09/09 05:04:17;;;;;;;20.27;11.20;;;;;;;19.96;60.60;94849.41;4212004;28;20051;-65
2022/09/09 05:06:20;;;;;;;25.35;11.05;;;;;;;20.05;60.50;94838.31;4213467;28;20048;-66
2022/09/09 05:08:22;;;;;;;;;;;;;;;20.11;59.87;94828.69;4212931;28;20091;-64
2022/09/09 05:10:24;;;;;;;16.33;11.13;;;;;;;20.14;59.75;94822.09;4199701;28;20006;-64
2022/09/09 05:12:26;;;;;;;18.33;11.55;;;;;;;20.19;59.63;94835.56;4212500;28;20150;-64
2022/09/09 05:14:29;;;;;;;20.25;11.60;;;;;;;20.23;59.34;94842.91;4212310;28;20052;-66
2022/09/09 05:16:31;;;;;;;22.05;12.27;;;;;;;20.24;59.49;94857.00;4211709;28;20082;-65
2022/09/09 05:18:33;;;;;;;15.00;10.77;;;;;;;20.28;59.33;94850.22;4211346;28;20564;-63
2022/09/09 05:20:34;;;;;;;15.10;11.07;;;;;;;20.35;59.28;94842.19;4213167;28;20048;-66
2022/09/09 05:22:36;;;;;;;17.42;11.13;;;;;;;20.44;58.94;94835.59;4204261;28;20064;-66
2022/09/09 05:24:38;;;;;;;19.15;11.23;;;;;;;20.48;58.53;94828.81;4209335;28;20143;-67
2022/09/09 05:26:40;;;;;;;17.02;11.52;;;;;;;20.54;58.54;94832.44;4212573;28;20471;-65
2022/09/09 05:28:42;;;;;;;13.15;11.13;;;;;;;20.37;58.39;94838.31;4213171;28;20135;-65
2022/09/09 05:30:43;;;;;;;13.82;11.57;;;;;;;20.22;58.82;94837.81;4212628;28;20288;-66
2022/09/09 05:32:46;;;;;;;17.05;12.85;;;;;;;19.98;59.74;94847.34;4211656;28;20076;-65
2022/09/09 05:34:48;;;;;;;14.63;11.68;;;;;;;20.00;59.89;94846.13;4210743;28;20040;-65
2022/09/09 05:36:51;;;;;;;18.45;10.93;;;;;;;20.13;59.85;94837.22;4212312;28;20527;-64
2022/09/09 05:38:56;;;;;;;;;;;;;;;20.10;59.60;94842.19;4204210;28;20050;-65
2022/09/09 05:40:57;;;;;;;20.38;12.20;;;;;;;20.12;59.64;94843.59;4199370;28;20007;-66
2022/09/09 05:43:00;;;;;;;16.10;11.30;;;;;;;20.17;59.71;94845.59;4212858;28;20044;-65
2022/09/09 05:45:02;;;;;;;16.70;12.82;;;;;;;20.26;59.34;94844.31;4204244;28;20072;-65
2022/09/09 05:47:04;;;;;;;19.23;12.45;;;;;;;20.28;59.15;94854.72;4206384;28;20488;-64
2022/09/09 05:49:06;;;;;;;22.35;11.45;;;;;;;20.31;59.14;94859.66;4212634;28;20052;-66
2022/09/09 05:51:13;;;;;;;16.83;12.27;;;;;;;20.28;58.86;94850.22;4211778;28;20052;-65
2022/09/09 05:53:14;;;;;;;15.05;11.60;;;;;;;20.39;58.79;94849.56;4212032;28;20144;-66
2022/09/09 05:55:16;;;;;;;16.42;10.82;;;;;;;20.55;58.53;94845.53;4212495;28;20083;-66
2022/09/09 05:57:19;;;;;;;23.17;11.93;;;;;;;20.69;57.83;94845.44;4212347;28;20074;-65
2022/09/09 05:59:23;;;;;;;12.35;10.98;;;;;;;20.81;57.15;94847.16;4199198;28;20043;-66
2022/09/09 06:01:32;;;;;;;13.88;11.40;;;;;;;20.94;56.74;94842.75;4211923;28;20048;-64
2022/09/09 06:03:39;;;;;;;24.13;12.25;;;;;;;21.05;56.25;94855.34;4206400;28;20475;-65
2022/09/09 06:05:40;;;;;;;15.77;12.52;;;;;;;20.99;56.88;94865.03;4212962;28;20150;-66
2022/09/09 06:07:44;;;;;;;19.92;12.57;;;;;;;20.98;56.92;94862.59;4211918;28;20597;-67
2022/09/09 06:09:46;;;;;;;17.10;12.85;;;;;;;20.31;58.27;94873.75;4212376;28;20051;-65
2022/09/09 06:11:48;;;;;;;20.67;13.93;;;;;;;20.35;58.61;94866.97;4211291;28;20040;-65
2022/09/09 06:13:54;;;;;;;21.52;13.48;;;;;;;20.46;60.07;94863.59;4210944;28;20592;-67
2022/09/09 06:15:56;;;;;;;16.15;12.40;;;;;;;20.37;58.54;94853.44;4211497;28;20149;-69
2022/09/09 06:17:57;;;;;;;18.08;13.75;;;;;;;20.48;58.62;94857.25;4210643;28;20056;-66
2022/09/09 06:19:59;;;;;;;19.17;13.40;;;;;;;20.65;57.54;94859.19;4198941;28;20045;-65
2022/09/09 06:22:01;;;;;;;22.70;13.68;;;;;;;20.80;57.40;94863.34;4198564;28;20156;-66
2022/09/09 06:24:03;;;;;;;17.88;12.88;;;;;;;20.97;56.62;94855.63;4211889;28;20055;-66
2022/09/09 06:26:10;;;;;;;15.73;13.05;;;;;;;21.12;56.44;94856.09;4212009;28;20140;-66
2022/09/09 06:28:13;;;;;;;17.98;13.18;;;;;;;21.22;55.54;94859.06;4211948;28;20075;-67
2022/09/09 06:30:17;;;;;;;21.63;14.65;;;;;;;21.31;56.05;94856.09;4212259;28;20052;-69
2022/09/09 06:32:18;;;;;;;;;;;;;;;21.41;55.64;94859.06;4212331;28;20046;-70
2022/09/09 06:34:20;;;;;;;24.20;13.35;;;;;;;21.42;55.40;94852.72;4211894;28;20014;-67
2022/09/09 06:36:24;;;;;;;18.52;12.18;;;;;;;21.37;55.93;94852.56;4210807;28;20048;-67
2022/09/09 06:38:27;;;;;;;18.80;13.27;;;;;;;21.09;55.60;94845.88;4211681;28;20141;-65
2022/09/09 06:40:30;;;;;;;16.33;12.27;;;;;;;21.12;55.97;94840.09;4212083;28;20059;-66
2022/09/09 06:42:31;;;;;;;17.63;12.70;;;;;;;21.31;55.83;94843.59;4211894;28;20311;-66
2022/09/09 06:44:33;;;;;;;20.30;11.43;;;;;;;21.53;55.56;94845.84;4208054;28;20488;-66
2022/09/09 06:46:36;;;;;;;14.70;10.87;;;;;;;21.76;55.01;94847.81;4201397;28;20105;-69
2022/09/09 06:48:41;;;;;;;17.15;11.20;;;;;;;21.96;54.29;94851.03;4211725;28;20048;-69
2022/09/09 06:50:43;;;;;;;13.00;10.93;;;;;;;22.04;52.86;94849.88;4199455;28;20052;-67
2022/09/09 06:52:47;;;;;;;17.17;10.80;;;;;;;22.12;53.00;94857.59;4210580;28;20135;-67
2022/09/09 06:54:49;;;;;;;19.45;11.65;;;;;;;22.28;53.03;94858.81;4205173;28;20300;-65
2022/09/09 06:56:51;;;;;;;18.27;11.75;;;;;;;22.33;51.80;94866.97;4196163;28;20053;-64
2022/09/09 06:58:54;;;;;;;16.88;11.77;;;;;;;22.04;52.56;94865.91;4210267;28;20150;-64
2022/09/09 07:01:06;;;;;;;15.48;12.25;;;;;;;21.96;53.03;94861.72;4211214;28;20176;-64
2022/09/09 07:03:09;;;;;;;15.32;11.82;;;;;;;21.96;53.14;94871.53;4206023;28;20493;-67
2022/09/09 07:05:11;;;;;;;16.25;11.90;;;;;;;21.90;53.23;94857.28;4212994;28;20078;-68
2022/09/09 07:07:15;;;;;;;15.50;11.43;;;;;;;21.94;53.32;94860.28;4210929;28;20086;-67
2022/09/09 07:09:16;;;;;;;;;;;;;;;22.06;53.07;94864.63;4211896;28;20147;-67
2022/09/09 07:11:20;;;;;;;14.73;10.43;;;;;;;22.24;52.68;94869.16;4202678;28;20011;-68
2022/09/09 07:13:25;;;;;;;24.05;16.88;;;;;;;22.14;52.12;94854.69;4205900;28;20070;-67
2022/09/09 07:15:27;;;;;;;22.20;14.15;;;;;;;21.95;52.80;94849.41;4195690;28;20086;-65
2022/09/09 07:17:29;;;;;;;21.27;13.40;;;;;;;22.07;53.06;94847.59;4201019;28;20052;-66
2022/09/09 07:19:30;;;;;;;19.65;11.25;;;;;;;22.21;52.45;94848.19;4210830;28;20471;-65
2022/09/09 07:21:33;;;;;;;14.68;11.95;;;;;;;22.33;52.60;94848.28;4211345;28;20627;-67
2022/09/09 07:23:38;;;;;;;15.57;11.13;;;;;;;22.41;52.00;94852.47;4210353;28;20059;-67
2022/09/09 07:25:45;;;;;;;15.45;11.35;;;;;;;22.58;51.52;94850.75;4211540;28;20537;-66
2022/09/09 07:27:46;;;;;;;20.48;10.95;;;;;;;22.74;51.22;94851.13;4193337;28;20103;-65
2022/09/09 07:29:48;;;;;;;18.88;12.00;;;;;;;22.83;50.37;94845.22;4210200;28;20055;-66
2022/09/09 07:31:50;;;;;;;23.88;12.55;;;;;;;22.71;50.80;94847.03;4210018;28;20128;-68
2022/09/09 07:33:51;;;;;;;24.52;13.65;;;;;;;22.84;51.14;94843.34;4211359;28;20139;-67
2022/09/09 07:35:54;;;;;;;17.33;11.63;;;;;;;23.02;50.97;94835.25;4211552;28;20425;-64
2022/09/09 07:37:55;;;;;;;18.38;11.90;;;;;;;23.08;50.10;94845.00;4210316;28;20193;-65
2022/09/09 07:39:58;;;;;;;16.55;10.68;;;;;;;23.10;49.64;94839.41;4207447;28;20083;-66
2022/09/09 07:42:00;;;;;;;15.20;10.45;;;;;;;23.14;49.66;94840.56;4206069;28;20399;-64
2022/09/09 07:44:06;;;;;;;14.30;9.65;;;;;;;23.26;49.24;94848.59;4210050;28;20164;-65
2022/09/09 07:46:09;;;;;;;14.25;9.52;;;;;;;23.11;49.69;94851.75;4209550;28;20473;-66
2022/09/09 07:48:11;;;;;;;17.73;10.13;;;;;;;23.17;49.40;94852.69;4203484;28;20421;-67
2022/09/09 07:50:13;;;;;;;12.82;8.93;;;;;;;23.00;49.55;94853.38;4204990;28;20050;-68
2022/09/09 07:52:14;;;;;;;14.93;9.13;;;;;;;22.77;50.12;94856.81;4210090;28;20062;-68
2022/09/09 07:54:23;;;;;;;15.88;9.43;;;;;;;23.03;49.72;94860.91;4207940;28;20049;-65
2022/09/09 07:56:26;;;;;;;15.85;9.85;;;;;;;23.15;49.30;94852.91;4195828;28;20155;-66
2022/09/09 07:58:27;;;;;;;17.23;9.30;;;;;;;23.03;49.62;94854.75;4206516;28;20139;-65
2022/09/09 08:00:29;;;;;;;12.90;9.50;;;;;;;23.22;49.87;94848.25;4210587;28;20134;-64
2022/09/09 08:02:30;;;;;;;14.35;9.02;;;;;;;23.42;49.56;94849.72;4210122;28;20548;-67
2022/09/09 08:04:32;;;;;;;12.32;8.18;;;;;;;23.71;49.21;94846.06;4210843;28;20044;-67
2022/09/09 08:06:39;;;;;;;12.75;7.38;;;;;;;24.02;48.89;94845.84;4212361;28;20138;-67
2022/09/09 08:08:43;;;;;;;13.20;8.52;;;;;;;24.16;48.30;94851.75;4210045;28;20110;-67
2022/09/09 08:10:44;;;;;;;;;;;;;;;24.29;48.30;94854.13;4197691;28;20446;-65
2022/09/09 08:12:46;;;;;;;12.35;8.52;;;;;;;24.44;47.88;94853.56;4203901;28;20391;-68
2022/09/09 08:15:08;;;;;;;10.23;8.27;;;;;;;24.63;47.38;94846.13;4213598;28;20056;-67
2022/09/09 08:17:09;;;;;;;12.43;7.45;;;;;;;24.82;46.62;94844.81;4212622;28;20139;-67
2022/09/09 08:19:11;;;;;;;10.40;7.97;;;;;;;24.85;45.79;94852.38;4213600;28;20133;-66
2022/09/09 08:21:17;;;;;;;16.00;7.95;;;;;;;24.93;45.97;94845.81;4214263;28;20135;-65
2022/09/09 08:23:19;;;;;;;10.07;7.25;;;;;;;25.06;46.09;94852.66;4212443;28;20477;-67
2022/09/09 08:25:20;;;;;;;10.43;7.63;;;;;;;25.20;46.01;94847.81;4211971;28;20304;-65
2022/09/09 08:27:22;;;;;;;14.02;8.20;;;;;;;25.22;45.89;94849.19;4213918;28;20503;-69
2022/09/09 08:29:24;;;;;;;12.00;7.68;;;;;;;25.17;45.52;94840.22;4214375;28;20062;-67
2022/09/09 08:31:31;;;;;;;10.27;7.80;;;;;;;25.13;45.41;94837.25;4211650;28;20439;-68
2022/09/09 08:33:33;;;;;;;14.70;8.07;;;;;;;25.17;46.07;94832.19;4213343;28;20117;-67
2022/09/09 08:35:35;;;;;;;13.93;7.93;;;;;;;25.21;46.21;94841.41;4212780;28;20044;-66
2022/09/09 08:37:37;;;;;;;11.43;8.77;;;;;;;25.23;46.25;94840.09;4211704;28;20144;-65
2022/09/09 08:39:38;;;;;;;11.27;7.78;;;;;;;25.06;45.67;94847.31;4213525;28;20140;-65
2022/09/09 08:42:11;;;;;;;11.50;7.47;;;;;;;24.93;46.47;94846.63;4213820;28;20055;-70
2022/09/09 08:44:36;;;;;;;11.85;7.72;;;;;;;24.91;46.06;94835.34;4212765;28;20143;-69
2022/09/09 08:46:50;;;;;;;12.30;7.47;;;;;;;24.58;46.46;94840.69;4219702;28;20744;-62
2022/09/09 08:49:03;;;;;;;9.02;6.43;;;;;;;24.44;46.49;94832.16;4212504;28;20055;-62
2022/09/09 08:51:08;;;;;;;10.30;6.55;;;;;;;24.71;46.37;94837.69;4213759;28;20048;-60
2022/09/09 08:53:13;;;;;;;10.93;7.18;;;;;;;24.79;45.73;94836.47;4210819;28;20127;-63
2022/09/09 08:55:25;;;;;;;11.95;6.97;;;;;;;24.72;45.84;94829.41;4213784;28;20583;-62
2022/09/09 08:57:29;;;;;;;9.13;6.38;;;;;;;24.65;45.90;94835.97;4213060;28;20139;-61
2022/09/09 08:59:30;;;;;;;19.52;6.32;;;;;;;24.70;45.98;94833.41;4211410;28;20044;-62
2022/09/09 09:01:51;;;;;;;10.75;7.15;;;;;;;24.75;46.45;94828.09;4212033;28;20128;-60
2022/09/09 09:03:53;;;;;;;13.10;6.80;;;;;;;24.75;45.83;94830.78;4210975;28;20047;-64
2022/09/09 09:06:06;;;;;;;13.43;7.07;;;;;;;24.65;45.58;94827.94;4213616;28;20474;-64
2022/09/09 09:08:20;;;;;;;11.88;6.75;;;;;;;24.81;45.51;94831.69;4211303;28;20139;-60
2022/09/09 09:10:30;;;;;;;10.30;6.55;;;;;;;24.72;45.25;94829.41;4196567;28;20131;-62
2022/09/09 09:12:44;;;;;;;11.38;6.30;;;;;;;24.79;45.33;94831.13;4197619;28;20533;-62
2022/09/09 09:14:47;;;;;;;11.88;6.32;;;;;;;25.05;45.21;94821.59;4206556;28;20052;-60
2022/09/09 09:17:00;;;;;;;9.52;5.82;;;;;;;25.10;44.26;94824.31;4210494;28;20044;-61
2022/09/09 09:19:03;;;;;;;8.15;6.00;;;;;;;24.99;45.02;94826.03;4201426;28;20502;-60
2022/09/09 09:21:29;;;;;;;7.05;5.57;;;;;;;25.03;45.32;94826.38;4213375;28;20082;-61
2022/09/09 09:23:43;;;;;;;13.98;6.05;;;;;;;24.94;45.05;94831.34;4193750;28;20055;-60
2022/09/09 09:25:45;;;;;;;;;;;;;;;24.61;45.25;94822.28;4212161;28;20048;-61
2022/09/09 09:28:10;;;;;;;7.07;6.05;;;;;;;24.59;45.60;94824.38;4204280;28;19974;-61
2022/09/09 09:30:20;;;;;;;11.32;6.10;;;;;;;24.78;45.55;94833.00;4211281;28;20526;-62
2022/09/09 09:32:33;;;;;;;9.80;6.28;;;;;;;24.71;45.36;94837.69;4204946;28;20412;-62
2022/09/09 09:34:34;;;;;;;16.10;6.15;;;;;;;24.87;45.37;94825.34;4208948;28;20161;-62
2022/09/09 09:36:42;;;;;;;8.63;6.03;;;;;;;25.15;45.05;94824.41;4212969;28;20063;-62
2022/09/09 09:38:56;;;;;;;7.63;5.43;;;;;;;25.29;44.35;94814.16;4212226;28;20136;-61
2022/09/09 09:41:34;;;;;;;12.50;5.95;;;;;;;25.43;44.38;94822.66;4210854;28;20131;-60
2022/09/09 09:43:40;;;;;;;17.40;5.90;;;;;;;25.53;44.85;94812.03;4208242;28;20056;-62
2022/09/09 09:45:46;;;;;;;11.00;5.90;;;;;;;25.51;44.12;94808.81;4206393;28;20083;-60